Aérodrome :
LOGIN :

S'inscrire | Disclaimer

   EN    FR    IT 

 










Légende :    VFR   VFR Marginal   IFR   IFR Intensif   IFR Très Intensif
Visi : 
Plafond : 
>= 8 km
>= 3000ft
5 à 8 km
1000 à 3000 ft
1500m à 5 km
500 à 1000 ft
800 à 1500m
200 à 500 ft
< 800m
< 200 ft
Symboles :   Orages  Brouillard  Fortes neiges  Fortes précipitations  Vent > 20 kt
SIGMETs :   Divers  Orages  Givrage  Turbulence  Onde Orograph.  Cendres Volcan.







- Altitude de l'aérodrome : 425 ft
- Code IATA : DTM


EDLW - Dortmund

DERNIER METAR :
  • 210350Z 22006KT CAVOK 17/13 Q1010

METARs EXPIRÉS :
  • 210320Z 23007KT CAVOK 17/13 Q1010
  • 210250Z AUTO 23005KT 9999 // SCT078/// SCT160/// 17/13 Q1010
  • 210220Z AUTO VRB02KT 9999 // SCT081/// BKN100/// 19/14 Q1010
  • 210150Z AUTO VRB02KT 9999 // BKN086/// BKN099/// 19/13 Q1010
  • 210120Z AUTO 23005KT 9999 // BKN088/// BKN100/// 19/13 Q1011

TAF TAF EDLW
Valide du 21 à 04h jusqu'au 22 à 00h UTC


210350Z 2104/2124 24004KT CAVOK
BECMG 2107/2110 32005KT
PROB30
TEMPO 2113/2116 32010KT TSRA SCT050CB
BECMG 2117/2120 23004KT
Pas de NOTAMs connus pour ce terrain.



MET'MAP, la Météo Aéronautique d'un coup d'oeil ! - Copyright ORBIFLY Décembre 2007 - Disclaimer

ORBIFLY MET'MAP TEAM :

Programmation & Développement : Alexandra Zaïnal
Conception & Développement : Baudouin d'Aumeries
Co-Programmation & Développement : Marc-Olivier Méhu
Soutien technique & logistique : Manuel Goepfert

Contact : metmap@orbifly.com




SOURCES & CREDITS :

   NOAA